createdAt,value
2022-11-02T00:04:45.880Z,2.08
2022-11-02T00:09:47.653Z,2.10
2022-11-02T00:14:49.429Z,1.90
2022-11-02T00:19:51.349Z,2.58
2022-11-02T00:24:53.573Z,2.20
2022-11-02T00:29:55.310Z,1.90
2022-11-02T00:34:57.056Z,2.22
2022-11-02T00:39:58.886Z,1.90
2022-11-02T00:45:00.668Z,2.20
2022-11-02T00:50:02.553Z,1.50
2022-11-02T00:55:06.767Z,1.50
2022-11-02T01:00:10.623Z,1.60
2022-11-02T01:05:12.819Z,1.88
2022-11-02T01:10:15.190Z,1.50
2022-11-02T01:15:17.070Z,1.40
2022-11-02T01:20:18.865Z,1.58
2022-11-02T01:25:21.045Z,1.40
2022-11-02T01:30:22.864Z,1.77
2022-11-02T01:35:24.699Z,1.50
2022-11-02T01:40:26.567Z,1.50
2022-11-02T01:45:28.402Z,1.35
2022-11-02T01:50:30.445Z,1.25
2022-11-02T01:55:34.456Z,1.50
2022-11-02T02:00:38.580Z,1.45
2022-11-02T02:05:42.921Z,1.42
2022-11-02T02:10:44.905Z,1.30
2022-11-02T02:16:16.219Z,1.30
2022-11-02T02:21:38.953Z,1.40
2022-11-02T02:26:51.996Z,1.00
2022-11-02T02:32:19.183Z,1.40
2022-11-02T02:37:51.584Z,1.50
2022-11-02T02:42:58.851Z,1.25
2022-11-02T02:48:00.965Z,1.10
2022-11-02T02:53:06.285Z,1.60
2022-11-02T02:58:26.010Z,2.47
2022-11-02T03:03:29.935Z,2.50
2022-11-02T03:08:32.896Z,1.70
2022-11-02T03:13:37.650Z,1.20
2022-11-02T03:18:48.437Z,1.50
2022-11-02T03:24:05.285Z,1.02
2022-11-02T03:29:26.449Z,1.52
2022-11-02T03:34:41.075Z,1.35
2022-11-02T03:39:50.472Z,1.20
2022-11-02T03:45:01.995Z,1.35
2022-11-02T03:50:06.874Z,1.50
2022-11-02T03:55:16.175Z,1.23
2022-11-02T04:00:21.085Z,1.35
2022-11-02T04:05:32.905Z,1.48
2022-11-02T04:10:58.060Z,1.40
2022-11-02T04:15:59.989Z,1.88
2022-11-02T04:21:02.277Z,1.75
2022-11-02T04:26:05.415Z,1.30
2022-11-02T04:31:15.575Z,1.33
2022-11-02T04:36:17.450Z,1.58
2022-11-02T04:41:43.226Z,1.45
2022-11-02T04:46:59.065Z,1.50
2022-11-02T04:52:05.071Z,1.45
2022-11-02T04:57:09.624Z,1.60
2022-11-02T05:02:12.093Z,1.83
2022-11-02T05:07:14.214Z,2.70
2022-11-02T05:12:16.099Z,1.60
2022-11-02T05:17:18.065Z,1.60
2022-11-02T05:22:21.429Z,1.55
2022-11-02T05:27:23.522Z,1.45
2022-11-02T05:32:25.416Z,1.48
2022-11-02T05:37:27.590Z,1.70
2022-11-02T05:42:29.515Z,1.80
2022-11-02T05:47:33.377Z,2.13
2022-11-02T05:52:35.461Z,2.03
2022-11-02T05:57:37.372Z,1.42
2022-11-02T06:02:39.151Z,1.75
2022-11-02T06:07:41.049Z,1.70
2022-11-02T06:12:43.052Z,1.85
2022-11-02T06:17:44.795Z,1.80
2022-11-02T06:22:47.195Z,1.70
2022-11-02T06:27:56.934Z,1.90
2022-11-02T06:33:06.951Z,1.70
2022-11-02T06:38:09.177Z,1.80
2022-11-02T06:43:16.505Z,2.17
2022-11-02T06:48:19.083Z,1.70
2022-11-02T06:53:21.008Z,1.67
2022-11-02T06:58:24.117Z,1.73
2022-11-02T07:03:26.002Z,2.20
2022-11-02T07:08:29.095Z,2.13
2022-11-02T07:13:31.051Z,1.90
2022-11-02T07:18:32.859Z,1.95
2022-11-02T07:23:34.717Z,2.15
2022-11-02T07:28:38.110Z,3.30
2022-11-02T07:33:39.923Z,3.83
2022-11-02T07:38:42.581Z,2.10
2022-11-02T07:43:44.357Z,1.70
2022-11-02T07:49:07.648Z,1.60
2022-11-02T07:54:09.453Z,2.05
2022-11-02T07:59:12.863Z,1.70
2022-11-02T08:04:14.928Z,1.83
2022-11-02T08:09:16.762Z,1.60
2022-11-02T08:14:18.490Z,1.75
2022-11-02T08:19:20.216Z,1.50
2022-11-02T08:24:22.091Z,2.03
2022-11-02T08:29:23.830Z,1.60
2022-11-02T08:34:25.612Z,1.60
2022-11-02T08:39:27.415Z,1.90
2022-11-02T08:44:29.251Z,1.58
2022-11-02T08:49:31.024Z,1.40
2022-11-02T08:54:32.809Z,1.80
2022-11-02T08:59:34.585Z,2.30
2022-11-02T09:04:36.348Z,1.73
2022-11-02T09:09:38.197Z,2.10
2022-11-02T09:14:39.927Z,1.60
2022-11-02T09:19:41.690Z,1.30
2022-11-02T09:24:43.556Z,1.63
2022-11-02T09:29:45.320Z,1.42
2022-11-02T09:34:50.461Z,1.70
2022-11-02T09:39:52.247Z,1.60
2022-11-02T09:45:01.180Z,1.55
2022-11-02T09:50:04.215Z,1.30
2022-11-02T09:55:15.458Z,1.40
2022-11-02T10:00:18.576Z,1.63
2022-11-02T10:05:42.053Z,1.40
2022-11-02T10:11:12.909Z,1.48
2022-11-02T10:16:46.523Z,1.42
2022-11-02T10:21:52.547Z,1.13
2022-11-02T10:27:01.124Z,1.23
2022-11-02T10:32:03.532Z,1.50
2022-11-02T10:37:43.046Z,1.00
2022-11-02T10:43:25.963Z,1.63
2022-11-02T10:48:46.216Z,1.40
2022-11-02T10:53:52.680Z,0.98
2022-11-02T10:59:04.179Z,1.30
2022-11-02T11:04:19.547Z,1.20
2022-11-02T11:09:24.883Z,1.35
2022-11-02T11:19:52.786Z,1.02
2022-11-02T11:25:25.838Z,1.23
2022-11-02T11:35:59.383Z,1.00
2022-11-02T11:41:04.016Z,1.40
2022-11-02T11:46:08.717Z,1.13
2022-11-02T11:51:27.651Z,1.38
2022-11-02T11:56:29.866Z,1.13
2022-11-02T12:01:40.900Z,0.85
2022-11-02T12:07:02.429Z,1.00
2022-11-02T12:12:31.749Z,1.15
2022-11-02T12:17:42.459Z,0.90
2022-11-02T12:22:56.477Z,1.00
2022-11-02T12:33:21.400Z,1.00
2022-11-02T12:38:36.105Z,0.90
2022-11-02T12:43:54.353Z,1.00
2022-11-02T12:49:11.424Z,1.10
2022-11-02T12:54:21.906Z,1.20
2022-11-02T12:59:30.575Z,1.00
2022-11-02T13:04:39.771Z,0.90
2022-11-02T13:09:54.905Z,1.05
2022-11-02T13:14:58.655Z,1.05
2022-11-02T13:25:26.015Z,1.10
2022-11-02T13:30:28.633Z,0.93
2022-11-02T13:35:35.029Z,1.20
2022-11-02T13:40:43.324Z,1.15
2022-11-02T13:45:59.355Z,1.20
2022-11-02T13:51:07.858Z,1.13
2022-11-02T13:56:12.721Z,0.98
2022-11-02T14:01:19.446Z,1.00
2022-11-02T14:06:22.333Z,1.00
2022-11-02T14:11:36.184Z,0.98
2022-11-02T14:16:50.267Z,1.08
2022-11-02T14:21:54.894Z,1.33
2022-11-02T14:26:57.479Z,1.02
2022-11-02T14:32:06.141Z,0.80
2022-11-02T14:37:30.262Z,1.60
2022-11-02T14:42:37.882Z,1.20
2022-11-02T14:47:39.890Z,1.40
2022-11-02T14:52:53.712Z,1.60
2022-11-02T14:58:03.394Z,1.13
2022-11-02T15:08:31.318Z,1.30
2022-11-02T15:13:36.634Z,1.20
2022-11-02T15:18:40.415Z,0.88
2022-11-02T15:23:57.340Z,1.10
2022-11-02T15:29:04.575Z,1.00
2022-11-02T15:34:17.393Z,0.75
2022-11-02T15:39:19.822Z,1.00
2022-11-02T15:44:46.374Z,0.85
2022-11-02T15:50:18.635Z,1.35
2022-11-02T15:55:40.541Z,1.35
2022-11-02T16:00:42.430Z,1.25
2022-11-02T16:05:48.279Z,1.35
2022-11-02T16:10:51.273Z,1.02
2022-11-02T16:16:05.988Z,1.42
2022-11-02T16:21:13.363Z,2.30
2022-11-02T16:26:23.985Z,1.90
2022-11-02T16:31:30.866Z,2.45
2022-11-02T16:36:37.130Z,1.70
2022-11-02T16:41:40.747Z,1.40
2022-11-02T16:46:47.459Z,1.60
2022-11-02T16:51:52.335Z,1.38
2022-11-02T16:56:57.075Z,1.40
2022-11-02T17:02:03.473Z,1.50
2022-11-02T17:07:28.809Z,1.85
2022-11-02T17:12:38.224Z,2.22
2022-11-02T17:17:40.326Z,1.70
2022-11-02T17:22:58.489Z,1.55
2022-11-02T17:28:24.999Z,1.95
2022-11-02T17:33:29.537Z,1.77
2022-11-02T17:38:31.372Z,1.90
2022-11-02T17:43:33.535Z,2.25
2022-11-02T17:48:35.242Z,1.67
2022-11-02T17:53:37.140Z,1.77
2022-11-02T17:58:39.145Z,3.25
2022-11-02T18:03:40.969Z,1.90
2022-11-02T18:09:01.135Z,3.08
2022-11-02T18:14:03.072Z,2.00
2022-11-02T18:19:04.782Z,4.78
2022-11-02T18:24:06.909Z,2.63
2022-11-02T18:29:08.689Z,9.00
2022-11-02T18:34:10.657Z,14.75
2022-11-02T18:39:12.386Z,13.35
2022-11-02T18:44:15.690Z,8.73
2022-11-02T18:49:17.620Z,6.60
2022-11-02T18:54:19.347Z,2.33
2022-11-02T18:59:21.061Z,1.70
2022-11-02T19:04:22.775Z,1.80
2022-11-02T19:09:26.792Z,1.80
2022-11-02T19:14:33.809Z,1.65
2022-11-02T19:19:35.788Z,2.70
2022-11-02T19:24:37.775Z,2.22
2022-11-02T19:29:39.545Z,2.05
2022-11-02T19:34:41.379Z,1.60
2022-11-02T19:39:43.121Z,1.70
2022-11-02T19:44:44.827Z,1.85
2022-11-02T19:49:46.542Z,1.77
2022-11-02T19:54:48.257Z,1.20
2022-11-02T19:59:49.986Z,1.70
2022-11-02T20:04:51.763Z,1.30
2022-11-02T20:09:55.836Z,1.67
2022-11-02T20:15:00.557Z,1.30
2022-11-02T20:20:02.410Z,1.23
2022-11-02T20:25:06.113Z,1.70
2022-11-02T20:30:08.607Z,1.30
2022-11-02T20:35:13.807Z,1.50
2022-11-02T20:40:15.970Z,1.30
2022-11-02T20:45:18.347Z,1.40
2022-11-02T20:50:24.826Z,1.42
2022-11-02T20:55:28.011Z,1.33
2022-11-02T21:00:29.768Z,1.60
2022-11-02T21:05:32.050Z,1.70
2022-11-02T21:10:34.697Z,1.60
2022-11-02T21:15:36.491Z,1.52
2022-11-02T21:20:38.685Z,1.95
2022-11-02T21:25:40.637Z,1.23
2022-11-02T21:30:42.346Z,1.38
2022-11-02T21:35:44.962Z,1.55
2022-11-02T21:40:47.027Z,1.30
2022-11-02T21:45:59.611Z,1.63
2022-11-02T21:51:13.366Z,1.15
2022-11-02T21:56:17.247Z,1.10
2022-11-02T22:01:45.045Z,1.30
2022-11-02T22:06:47.941Z,1.27
2022-11-02T22:12:09.915Z,1.10
2022-11-02T22:17:21.782Z,1.10
2022-11-02T22:22:30.358Z,1.20
2022-11-02T22:27:32.110Z,1.60
2022-11-02T22:32:34.138Z,1.27
2022-11-02T22:37:54.747Z,1.10
2022-11-02T22:42:56.488Z,1.88
2022-11-02T22:47:58.214Z,1.30
2022-11-02T22:52:59.930Z,1.02
2022-11-02T22:58:01.667Z,1.20
2022-11-02T23:03:03.607Z,1.73
2022-11-02T23:08:05.688Z,1.20
2022-11-02T23:13:07.848Z,1.20
2022-11-02T23:18:09.860Z,1.60
2022-11-02T23:23:30.362Z,3.63
2022-11-02T23:28:50.835Z,4.57
2022-11-02T23:33:52.542Z,4.07
2022-11-02T23:39:12.836Z,4.25
2022-11-02T23:44:14.760Z,4.38
2022-11-02T23:49:18.068Z,4.47
2022-11-02T23:54:38.437Z,4.40
2022-11-02T23:59:40.245Z,3.63
